Capitol Logistics 263


KIAD
Washington Dulles International Airport
Dulles, Virginia, US
KBOS
Logan International Airport
Boston, Massachusetts, US

Route Details

Aircraft Information
Primary: Boeing 767-300BDSF
Backup: Boeing 757-200SF
Route Data
Distance: 359nm
Sched. Duration: 1h 19m
Avg. Duration: 1h 19m (-1m)
Times Flown: 9
Recm'd Route: JCOBY3 SWANN BROSS J42 RBV J222 JFK ROBUC3
Planned Altitude: 31,000ft
Origin Wx: KIAD 311152Z 01010KT 10SM CLR 17/04 A3015 RMK AO2 SLP207 T01670044 10183 20139 52022
Dest. Wx: KBOS 311154Z 32017G22KT 10SM FEW035 FEW045 FEW220 15/04 A2997 RMK AO2 SLP146 T01500044 10183 20150 53030
Notes:

Financial History
Total Freight: 759,919lbs
Average Load: 84,435lbs/flt
Fuel Used: 115,799lbs
Avg. Fuel Used: 12,867lbs/flt
Fuel Expense: $150,985
Avg. Fuel Expense: $16,776
Avg. Fuel Cost: $1.30/lbs
Total Gross Income: $999,424
Pilot Pay: $1,761
Total Expenses: $108,406
Total Revenue: $737,317
Average Revenue: $111,047.06